createdAt,value
2022-12-12T00:02:29.719Z,-3.26
2022-12-12T00:05:04.833Z,-3.29
2022-12-12T00:07:37.805Z,-3.34
2022-12-12T00:10:12.833Z,-3.39
2022-12-12T00:12:47.067Z,-3.44
2022-12-12T00:15:20.822Z,-3.49
2022-12-12T00:17:53.982Z,-3.52
2022-12-12T00:20:29.024Z,-3.53
2022-12-12T00:23:01.905Z,-3.58
2022-12-12T00:25:36.137Z,-3.60
2022-12-12T00:28:09.054Z,-3.63
2022-12-12T00:30:42.128Z,-3.66
2022-12-12T00:33:14.981Z,-3.68
2022-12-12T00:35:54.492Z,-3.68
2022-12-12T00:38:28.767Z,-3.71
2022-12-12T00:41:02.783Z,-3.74
2022-12-12T00:43:36.026Z,-3.74
2022-12-12T00:46:09.721Z,-3.75
2022-12-12T00:48:43.194Z,-3.73
2022-12-12T00:51:20.009Z,-3.69
2022-12-12T00:53:55.975Z,-3.66
2022-12-12T00:56:30.826Z,-3.58
2022-12-12T00:59:04.460Z,-3.53
2022-12-12T01:01:37.384Z,-3.44
2022-12-12T01:04:10.559Z,-3.34
2022-12-12T01:06:44.908Z,-3.24
2022-12-12T01:09:18.148Z,-3.15
2022-12-12T01:11:51.271Z,-3.04
2022-12-12T01:14:24.236Z,-2.93
2022-12-12T01:16:57.747Z,-2.86
2022-12-12T01:19:30.708Z,-2.74
2022-12-12T01:22:04.999Z,-2.64
2022-12-12T01:24:38.065Z,-2.57
2022-12-12T01:27:11.679Z,-2.49
2022-12-12T01:29:44.548Z,-2.40
2022-12-12T01:32:17.498Z,-2.32
2022-12-12T01:34:50.817Z,-2.24
2022-12-12T01:37:25.305Z,-2.17
2022-12-12T01:39:58.404Z,-2.12
2022-12-12T01:42:31.309Z,-2.02
2022-12-12T01:45:05.225Z,-1.96
2022-12-12T01:47:38.524Z,-1.90
2022-12-12T01:50:12.286Z,-1.82
2022-12-12T01:52:51.358Z,-1.78
2022-12-12T01:55:25.078Z,-1.72
2022-12-12T01:57:58.287Z,-1.69
2022-12-12T02:00:31.302Z,-1.64
2022-12-12T02:03:04.439Z,-1.60
2022-12-12T02:05:41.601Z,-1.58
2022-12-12T02:08:21.574Z,-1.55
2022-12-12T02:10:54.561Z,-1.54
2022-12-12T02:13:31.736Z,-1.52
2022-12-12T02:16:14.224Z,-1.53
2022-12-12T02:18:57.930Z,-1.53
2022-12-12T02:21:36.055Z,-1.52
2022-12-12T02:24:44.874Z,-1.53
2022-12-12T02:27:42.140Z,-1.54
2022-12-12T02:30:22.268Z,-1.52
2022-12-12T02:33:19.678Z,-1.51
2022-12-12T02:36:09.251Z,-1.52
2022-12-12T02:38:51.653Z,-1.47
2022-12-12T02:41:31.905Z,-1.43
2022-12-12T02:44:14.351Z,-1.40
2022-12-12T02:46:52.615Z,-1.36
2022-12-12T02:49:30.278Z,-1.32
2022-12-12T02:52:03.744Z,-1.28
2022-12-12T02:54:37.713Z,-1.23
2022-12-12T02:57:16.722Z,-1.19
2022-12-12T02:59:54.607Z,-1.15
2022-12-12T03:03:28.662Z,-1.06
2022-12-12T03:06:40.672Z,-1.01
2022-12-12T03:09:17.407Z,-0.96
2022-12-12T03:12:02.820Z,-0.90
2022-12-12T03:14:49.985Z,-0.88
2022-12-12T03:17:31.640Z,-0.86
2022-12-12T03:20:12.181Z,-0.84
2022-12-12T03:22:52.934Z,-0.81
2022-12-12T03:25:34.615Z,-0.80
2022-12-12T03:28:11.529Z,-0.79
2022-12-12T03:30:47.870Z,-0.79
2022-12-12T03:33:27.466Z,-0.76
2022-12-12T03:36:05.009Z,-0.78
2022-12-12T03:38:42.647Z,-0.79
2022-12-12T03:41:21.611Z,-0.79
2022-12-12T03:43:59.295Z,-0.83
2022-12-12T03:46:38.340Z,-0.83
2022-12-12T03:49:17.101Z,-0.87
2022-12-12T03:51:57.038Z,-0.90
2022-12-12T03:54:38.155Z,-0.91
2022-12-12T03:57:17.106Z,-0.95
2022-12-12T03:59:56.162Z,-0.99
2022-12-12T04:02:34.717Z,-1.05
2022-12-12T04:05:16.252Z,-1.11
2022-12-12T04:07:54.103Z,-1.20
2022-12-12T04:10:51.208Z,-1.26
2022-12-12T04:13:32.826Z,-1.37
2022-12-12T04:16:10.288Z,-1.43
2022-12-12T04:18:51.577Z,-1.54
2022-12-12T04:21:52.233Z,-1.61
2022-12-12T04:24:31.755Z,-1.71
2022-12-12T04:27:10.451Z,-1.79
2022-12-12T04:29:49.499Z,-1.87
2022-12-12T04:32:28.259Z,-1.93
2022-12-12T04:35:07.376Z,-1.96
2022-12-12T04:37:44.467Z,-2.00
2022-12-12T04:40:23.153Z,-1.98
2022-12-12T04:43:02.768Z,-2.00
2022-12-12T04:45:39.984Z,-1.99
2022-12-12T04:48:17.676Z,-1.99
2022-12-12T04:50:53.958Z,-1.97
2022-12-12T04:53:31.147Z,-1.95
2022-12-12T04:56:09.547Z,-1.95
2022-12-12T04:58:44.062Z,-1.90
2022-12-12T05:01:23.800Z,-1.87
2022-12-12T05:03:59.195Z,-1.83
2022-12-12T05:06:38.817Z,-1.80
2022-12-12T05:09:13.835Z,-1.78
2022-12-12T05:11:49.032Z,-1.76
2022-12-12T05:14:23.672Z,-1.73
2022-12-12T05:17:02.329Z,-1.71
2022-12-12T05:19:35.306Z,-1.70
2022-12-12T05:22:08.180Z,-1.70
2022-12-12T05:24:41.584Z,-1.67
2022-12-12T05:27:14.483Z,-1.65
2022-12-12T05:29:48.904Z,-1.60
2022-12-12T05:32:21.965Z,-1.59
2022-12-12T05:34:55.108Z,-1.56
2022-12-12T05:37:28.144Z,-1.53
2022-12-12T05:40:01.036Z,-1.49
2022-12-12T05:42:34.043Z,-1.43
2022-12-12T05:45:10.493Z,-1.40
2022-12-12T05:47:43.520Z,-1.34
2022-12-12T05:50:17.486Z,-1.31
2022-12-12T05:52:50.726Z,-1.25
2022-12-12T05:55:23.934Z,-1.21
2022-12-12T05:57:57.005Z,-1.15
2022-12-12T06:00:31.322Z,-1.07
2022-12-12T06:03:04.362Z,-1.04
2022-12-12T06:05:37.421Z,-0.99
2022-12-12T06:08:10.561Z,-0.93
2022-12-12T06:10:45.643Z,-0.88
2022-12-12T06:13:18.791Z,-0.85
2022-12-12T06:15:53.403Z,-0.78
2022-12-12T06:18:26.878Z,-0.74
2022-12-12T06:21:04.069Z,-0.68
2022-12-12T06:23:39.553Z,-0.66
2022-12-12T06:26:17.044Z,-0.59
2022-12-12T06:28:50.692Z,-0.56
2022-12-12T06:31:24.993Z,-0.50
2022-12-12T06:33:57.955Z,-0.46
2022-12-12T06:36:30.987Z,-0.41
2022-12-12T06:39:04.808Z,-0.34
2022-12-12T06:41:37.972Z,-0.31
2022-12-12T06:44:10.943Z,-0.27
2022-12-12T06:46:45.592Z,-0.20
2022-12-12T06:49:18.504Z,-0.17
2022-12-12T06:51:51.698Z,-0.13
2022-12-12T06:54:26.234Z,-0.11
2022-12-12T06:56:59.331Z,-0.06
2022-12-12T06:59:32.142Z,-0.01
2022-12-12T07:02:07.204Z,0.04
2022-12-12T07:04:40.575Z,0.08
2022-12-12T07:07:13.674Z,0.13
2022-12-12T07:09:46.989Z,0.17
2022-12-12T07:12:19.945Z,0.20
2022-12-12T07:14:53.519Z,0.26
2022-12-12T07:17:28.885Z,0.31
2022-12-12T07:20:01.913Z,0.34
2022-12-12T07:22:34.744Z,0.37
2022-12-12T07:25:08.616Z,0.43
2022-12-12T07:27:41.648Z,0.46
2022-12-12T07:30:14.770Z,0.51
2022-12-12T07:32:49.499Z,0.57
2022-12-12T07:35:23.409Z,0.62
2022-12-12T07:37:56.711Z,0.66
2022-12-12T07:40:29.721Z,0.71
2022-12-12T07:43:02.758Z,0.78
2022-12-12T07:45:35.644Z,0.82
2022-12-12T07:48:09.879Z,0.87
2022-12-12T07:50:43.530Z,0.89
2022-12-12T07:53:16.281Z,0.93
2022-12-12T07:55:49.139Z,0.96
2022-12-12T07:58:22.451Z,0.98
2022-12-12T08:00:55.409Z,1.04
2022-12-12T08:03:29.640Z,1.08
2022-12-12T08:06:05.660Z,1.11
2022-12-12T08:08:38.580Z,1.14
2022-12-12T08:11:14.541Z,1.21
2022-12-12T08:13:48.009Z,1.24
2022-12-12T08:16:23.737Z,1.29
2022-12-12T08:19:00.216Z,1.34
2022-12-12T08:21:33.142Z,1.39
2022-12-12T08:24:06.308Z,1.43
2022-12-12T08:26:39.495Z,1.48
2022-12-12T08:29:13.068Z,1.53
2022-12-12T08:31:46.314Z,1.58
2022-12-12T08:34:20.630Z,1.64
2022-12-12T08:36:55.070Z,1.68
2022-12-12T08:39:28.243Z,1.71
2022-12-12T08:42:01.563Z,1.77
2022-12-12T08:44:34.479Z,1.79
2022-12-12T08:47:07.637Z,1.87
2022-12-12T08:49:42.067Z,1.94
2022-12-12T08:52:15.229Z,1.97
2022-12-12T08:54:48.347Z,2.03
2022-12-12T08:57:25.946Z,2.10
2022-12-12T08:59:59.166Z,2.18
2022-12-12T09:02:32.381Z,2.26
2022-12-12T09:05:08.015Z,2.33
2022-12-12T09:07:40.868Z,2.41
2022-12-12T09:10:14.012Z,2.48
2022-12-12T09:12:46.919Z,2.55
2022-12-12T09:15:20.208Z,2.61
2022-12-12T09:17:53.575Z,2.69
2022-12-12T09:20:27.952Z,2.76
2022-12-12T09:23:01.194Z,2.80
2022-12-12T09:25:36.843Z,2.87
2022-12-12T09:28:13.685Z,2.94
2022-12-12T09:30:48.099Z,2.99
2022-12-12T09:33:21.306Z,3.03
2022-12-12T09:36:00.574Z,3.12
2022-12-12T09:38:34.089Z,3.18
2022-12-12T09:41:14.984Z,3.25
2022-12-12T09:43:55.782Z,3.30
2022-12-12T09:46:34.729Z,3.35
2022-12-12T09:49:23.495Z,3.42
2022-12-12T09:52:00.269Z,3.49
2022-12-12T09:54:33.092Z,3.53
2022-12-12T09:57:24.796Z,3.58
2022-12-12T10:00:05.398Z,3.63
2022-12-12T10:03:01.910Z,3.69
2022-12-12T10:05:43.255Z,3.76
2022-12-12T10:08:23.064Z,3.81
2022-12-12T10:11:04.718Z,3.84
2022-12-12T10:13:38.510Z,3.89
2022-12-12T10:16:15.961Z,3.92
2022-12-12T10:18:52.130Z,3.95
2022-12-12T10:21:30.199Z,3.99
2022-12-12T10:24:15.974Z,4.02
2022-12-12T10:26:49.265Z,4.04
2022-12-12T10:29:24.044Z,4.05
2022-12-12T10:32:08.677Z,4.08
2022-12-12T10:34:56.000Z,4.10
2022-12-12T10:37:39.916Z,4.14
2022-12-12T10:40:32.607Z,4.21
2022-12-12T10:43:12.888Z,4.23
2022-12-12T10:46:00.761Z,4.27
2022-12-12T10:48:33.681Z,4.32
2022-12-12T10:51:12.015Z,4.37
2022-12-12T10:53:45.889Z,4.44
2022-12-12T10:56:24.759Z,4.51
2022-12-12T10:58:59.641Z,4.56
2022-12-12T11:02:08.249Z,4.61
2022-12-12T11:04:32.563Z,4.66
2022-12-12T11:07:05.420Z,4.67
2022-12-12T11:09:46.092Z,4.68
2022-12-12T11:12:20.997Z,4.65
2022-12-12T11:15:02.229Z,4.64
2022-12-12T11:17:37.093Z,4.62
2022-12-12T11:20:18.564Z,4.60
2022-12-12T11:22:54.223Z,4.57
2022-12-12T11:25:29.738Z,4.57
2022-12-12T11:28:06.940Z,4.57
2022-12-12T11:30:44.798Z,4.57
2022-12-12T11:33:22.329Z,4.58
2022-12-12T11:35:56.457Z,4.59
2022-12-12T11:38:32.588Z,4.63
2022-12-12T11:41:08.241Z,4.66
2022-12-12T11:43:56.235Z,4.72
2022-12-12T11:46:30.900Z,4.76
2022-12-12T11:49:05.645Z,4.79
2022-12-12T11:51:40.480Z,4.82
2022-12-12T11:54:16.077Z,4.83
2022-12-12T11:56:54.135Z,4.86
2022-12-12T11:59:55.901Z,4.91
2022-12-12T12:02:51.603Z,4.94
2022-12-12T12:05:32.080Z,4.94
2022-12-12T12:08:16.991Z,4.95
2022-12-12T12:11:01.523Z,4.93
2022-12-12T12:13:53.565Z,4.95
2022-12-12T12:16:33.347Z,4.96
2022-12-12T12:19:14.320Z,4.99
2022-12-12T12:21:58.406Z,5.01
2022-12-12T12:25:01.248Z,5.01
2022-12-12T12:27:42.837Z,4.99
2022-12-12T12:30:23.304Z,4.94
2022-12-12T12:33:19.787Z,4.90
2022-12-12T12:36:20.739Z,4.82
2022-12-12T12:39:01.839Z,4.74
2022-12-12T12:41:52.146Z,4.64
2022-12-12T12:44:38.100Z,4.52
2022-12-12T12:47:23.039Z,4.40
2022-12-12T12:50:03.324Z,4.32
2022-12-12T12:52:39.916Z,4.24
2022-12-12T12:55:16.422Z,4.15
2022-12-12T12:57:51.459Z,4.09
2022-12-12T13:00:28.404Z,4.02
2022-12-12T13:03:06.868Z,3.97
2022-12-12T13:05:46.424Z,3.94
2022-12-12T13:08:31.694Z,3.94
2022-12-12T13:11:10.552Z,3.92
2022-12-12T13:13:46.075Z,3.91
2022-12-12T13:16:22.286Z,3.88
2022-12-12T13:19:03.567Z,3.86
2022-12-12T13:21:46.964Z,3.86
2022-12-12T13:24:27.244Z,3.81
2022-12-12T13:27:07.534Z,3.80
2022-12-12T13:29:48.781Z,3.78
2022-12-12T13:32:54.912Z,3.73
2022-12-12T13:35:32.435Z,3.68
2022-12-12T13:38:06.967Z,3.61
2022-12-12T13:40:43.360Z,3.58
2022-12-12T13:43:30.460Z,3.57
2022-12-12T13:46:36.563Z,3.54
2022-12-12T13:49:24.704Z,3.57
2022-12-12T13:52:23.075Z,3.57
2022-12-12T13:55:22.993Z,3.59
2022-12-12T13:58:08.453Z,3.60
2022-12-12T14:00:43.381Z,3.58
2022-12-12T14:03:32.335Z,3.60
2022-12-12T14:06:11.761Z,3.59
2022-12-12T14:08:50.793Z,3.59
2022-12-12T14:11:35.400Z,3.57
2022-12-12T14:14:22.500Z,3.56
2022-12-12T14:16:57.999Z,3.54
2022-12-12T14:19:36.466Z,3.52
2022-12-12T14:22:27.950Z,3.50
2022-12-12T14:25:18.655Z,3.50
2022-12-12T14:28:19.156Z,3.51
2022-12-12T14:31:14.357Z,3.49
2022-12-12T14:34:09.297Z,3.50
2022-12-12T14:37:17.983Z,3.52
2022-12-12T14:40:05.322Z,3.51
2022-12-12T14:43:15.269Z,3.47
2022-12-12T14:45:41.167Z,3.42
2022-12-12T14:48:21.092Z,3.40
2022-12-12T14:51:13.438Z,3.36
2022-12-12T14:53:49.606Z,3.28
2022-12-12T14:56:28.087Z,3.24
2022-12-12T14:59:04.012Z,3.20
2022-12-12T15:01:43.757Z,3.15
2022-12-12T15:04:20.747Z,3.12
2022-12-12T15:06:54.554Z,3.07
2022-12-12T15:09:30.672Z,3.04
2022-12-12T15:12:16.307Z,3.01
2022-12-12T15:15:00.337Z,2.98
2022-12-12T15:17:41.233Z,2.97
2022-12-12T15:20:18.746Z,2.96
2022-12-12T15:22:57.204Z,2.94
2022-12-12T15:25:33.127Z,2.92
2022-12-12T15:28:07.262Z,2.90
2022-12-12T15:30:43.487Z,2.90
2022-12-12T15:33:20.206Z,2.89
2022-12-12T15:36:01.119Z,2.85
2022-12-12T15:38:35.426Z,2.79
2022-12-12T15:41:13.519Z,2.76
2022-12-12T15:43:47.042Z,2.70
2022-12-12T15:46:20.122Z,2.60
2022-12-12T15:48:54.675Z,2.54
2022-12-12T15:51:32.252Z,2.44
2022-12-12T15:54:05.689Z,2.33
2022-12-12T15:56:38.731Z,2.26
2022-12-12T15:59:17.833Z,2.17
2022-12-12T16:01:53.542Z,2.07
2022-12-12T16:04:28.300Z,1.98
2022-12-12T16:07:21.148Z,1.89
2022-12-12T16:10:07.600Z,1.80
2022-12-12T16:12:57.647Z,1.72
2022-12-12T16:15:34.271Z,1.66
2022-12-12T16:18:16.504Z,1.59
2022-12-12T16:20:53.601Z,1.53
2022-12-12T16:23:30.761Z,1.46
2022-12-12T16:26:03.699Z,1.37
2022-12-12T16:28:37.323Z,1.30
2022-12-12T16:31:16.866Z,1.25
2022-12-12T16:33:50.377Z,1.17
2022-12-12T16:36:25.084Z,1.06
2022-12-12T16:38:58.425Z,1.00
2022-12-12T16:41:31.948Z,0.92
2022-12-12T16:44:05.340Z,0.83
2022-12-12T16:46:38.267Z,0.73
2022-12-12T16:49:15.268Z,0.65
2022-12-12T16:51:52.623Z,0.60
2022-12-12T16:54:26.018Z,0.50
2022-12-12T16:57:00.263Z,0.41
2022-12-12T16:59:33.253Z,0.30
2022-12-12T17:02:11.801Z,0.25
2022-12-12T17:04:44.900Z,0.16
2022-12-12T17:07:19.896Z,0.09
2022-12-12T17:09:52.979Z,0.02
2022-12-12T17:12:26.183Z,-0.08
2022-12-12T17:14:59.278Z,-0.14
2022-12-12T17:17:32.506Z,-0.22
2022-12-12T17:20:06.592Z,-0.28
2022-12-12T17:22:44.464Z,-0.32
2022-12-12T17:25:18.058Z,-0.41
2022-12-12T17:27:52.143Z,-0.48
2022-12-12T17:30:28.185Z,-0.56
2022-12-12T17:33:17.556Z,-0.60
2022-12-12T17:36:03.289Z,-0.66
2022-12-12T17:38:37.969Z,-0.72
2022-12-12T17:41:12.928Z,-0.79
2022-12-12T17:43:50.581Z,-0.85
2022-12-12T17:46:28.768Z,-0.93
2022-12-12T17:49:03.402Z,-0.97
2022-12-12T17:51:37.617Z,-1.05
2022-12-12T17:54:12.536Z,-1.08
2022-12-12T17:56:46.029Z,-1.13
2022-12-12T17:59:20.328Z,-1.19
2022-12-12T18:01:54.225Z,-1.23
2022-12-12T18:04:28.645Z,-1.28
2022-12-12T18:07:04.116Z,-1.33
2022-12-12T18:09:41.110Z,-1.36
2022-12-12T18:12:13.995Z,-1.42
2022-12-12T18:14:47.639Z,-1.47
2022-12-12T18:17:21.202Z,-1.53
2022-12-12T18:19:54.851Z,-1.55
2022-12-12T18:22:30.625Z,-1.61
2022-12-12T18:25:05.865Z,-1.62
2022-12-12T18:27:40.392Z,-1.68
2022-12-12T18:30:14.171Z,-1.72
2022-12-12T18:32:47.361Z,-1.74
2022-12-12T18:35:21.253Z,-1.78
2022-12-12T18:37:54.496Z,-1.83
2022-12-12T18:40:31.274Z,-1.85
2022-12-12T18:43:04.524Z,-1.88
2022-12-12T18:45:38.611Z,-1.92
2022-12-12T18:48:13.054Z,-1.98
2022-12-12T18:50:46.215Z,-1.99
2022-12-12T18:53:19.241Z,-2.01
2022-12-12T18:55:55.471Z,-2.04
2022-12-12T18:58:29.079Z,-2.07
2022-12-12T19:01:08.044Z,-2.09
2022-12-12T19:03:42.791Z,-2.13
2022-12-12T19:06:17.974Z,-2.16
2022-12-12T19:08:51.766Z,-2.21
2022-12-12T19:11:26.272Z,-2.22
2022-12-12T19:13:59.411Z,-2.27
2022-12-12T19:16:32.420Z,-2.28
2022-12-12T19:19:09.446Z,-2.33
2022-12-12T19:21:44.984Z,-2.33
2022-12-12T19:24:19.860Z,-2.34
2022-12-12T19:26:54.671Z,-2.36
2022-12-12T19:29:27.810Z,-2.40
2022-12-12T19:32:02.347Z,-2.43
2022-12-12T19:34:35.402Z,-2.45
2022-12-12T19:37:08.841Z,-2.49
2022-12-12T19:39:46.270Z,-2.49
2022-12-12T19:42:20.621Z,-2.51
2022-12-12T19:44:53.645Z,-2.54
2022-12-12T19:47:27.612Z,-2.58
2022-12-12T19:50:02.069Z,-2.59
2022-12-12T19:52:37.995Z,-2.61
2022-12-12T19:55:11.784Z,-2.63
2022-12-12T19:57:46.778Z,-2.65
2022-12-12T20:00:21.153Z,-2.68
2022-12-12T20:02:54.336Z,-2.70
2022-12-12T20:05:27.583Z,-2.71
2022-12-12T20:08:00.780Z,-2.72
2022-12-12T20:10:36.448Z,-2.76
2022-12-12T20:13:11.626Z,-2.75
2022-12-12T20:15:44.823Z,-2.77
2022-12-12T20:18:18.041Z,-2.77
2022-12-12T20:20:57.429Z,-2.79
2022-12-12T20:23:31.891Z,-2.80
2022-12-12T20:26:06.490Z,-2.82
2022-12-12T20:28:40.916Z,-2.82
2022-12-12T20:31:16.470Z,-2.83
2022-12-12T20:33:49.834Z,-2.82
2022-12-12T20:36:26.368Z,-2.83
2022-12-12T20:39:01.876Z,-2.82
2022-12-12T20:41:37.792Z,-2.83
2022-12-12T20:44:13.988Z,-2.84
2022-12-12T20:46:47.915Z,-2.85
2022-12-12T20:49:24.620Z,-2.84
2022-12-12T20:51:58.803Z,-2.88
2022-12-12T20:54:32.330Z,-2.90
2022-12-12T20:57:05.373Z,-2.90
2022-12-12T20:59:39.694Z,-2.92
2022-12-12T21:02:24.002Z,-2.92
2022-12-12T21:05:00.718Z,-2.95
2022-12-12T21:07:33.763Z,-2.96
2022-12-12T21:10:07.438Z,-2.97
2022-12-12T21:12:40.471Z,-2.98
2022-12-12T21:15:15.188Z,-2.95
2022-12-12T21:17:48.291Z,-2.92
2022-12-12T21:20:24.281Z,-2.89
2022-12-12T21:22:57.675Z,-2.87
2022-12-12T21:25:30.664Z,-2.81
2022-12-12T21:28:03.659Z,-2.74
2022-12-12T21:30:38.083Z,-2.67
2022-12-12T21:33:11.654Z,-2.58
2022-12-12T21:35:44.829Z,-2.49
2022-12-12T21:38:18.389Z,-2.40
2022-12-12T21:40:51.256Z,-2.29
2022-12-12T21:43:24.949Z,-2.17
2022-12-12T21:45:59.965Z,-2.06
2022-12-12T21:48:33.038Z,-1.96
2022-12-12T21:51:11.554Z,-1.82
2022-12-12T21:53:50.175Z,-1.74
2022-12-12T21:56:25.542Z,-1.62
2022-12-12T21:59:01.782Z,-1.53
2022-12-12T22:01:36.319Z,-1.41
2022-12-12T22:04:10.833Z,-1.34
2022-12-12T22:06:45.774Z,-1.24
2022-12-12T22:09:18.731Z,-1.15
2022-12-12T22:11:52.065Z,-1.05
2022-12-12T22:14:25.715Z,-0.96
2022-12-12T22:17:00.074Z,-0.86
2022-12-12T22:19:33.346Z,-0.79
2022-12-12T22:22:07.507Z,-0.70
2022-12-12T22:24:46.360Z,-0.60
2022-12-12T22:27:19.337Z,-0.55
2022-12-12T22:29:52.295Z,-0.48
2022-12-12T22:32:26.681Z,-0.44
2022-12-12T22:34:59.541Z,-0.38
2022-12-12T22:37:35.133Z,-0.33
2022-12-12T22:40:09.722Z,-0.27
2022-12-12T22:42:42.664Z,-0.24
2022-12-12T22:45:16.168Z,-0.21
2022-12-12T22:47:53.132Z,-0.17
2022-12-12T22:50:26.115Z,-0.18
2022-12-12T22:52:59.178Z,-0.14
2022-12-12T22:55:35.372Z,-0.12
2022-12-12T22:58:08.772Z,-0.13
2022-12-12T23:00:41.871Z,-0.13
2022-12-12T23:03:16.319Z,-0.13
2022-12-12T23:05:49.792Z,-0.16
2022-12-12T23:08:22.811Z,-0.20
2022-12-12T23:10:55.753Z,-0.21
2022-12-12T23:13:29.016Z,-0.22
2022-12-12T23:16:06.429Z,-0.22
2022-12-12T23:18:42.135Z,-0.24
2022-12-12T23:21:17.608Z,-0.25
2022-12-12T23:23:50.752Z,-0.27
2022-12-12T23:26:26.873Z,-0.28
2022-12-12T23:29:00.643Z,-0.29
2022-12-12T23:31:36.337Z,-0.30
2022-12-12T23:34:16.020Z,-0.26
2022-12-12T23:36:49.360Z,-0.30
2022-12-12T23:39:23.373Z,-0.29
2022-12-12T23:41:56.617Z,-0.31
2022-12-12T23:44:30.115Z,-0.31
2022-12-12T23:47:03.003Z,-0.33
2022-12-12T23:49:37.525Z,-0.32
2022-12-12T23:52:10.706Z,-0.34
2022-12-12T23:54:44.327Z,-0.38
2022-12-12T23:57:17.430Z,-0.39
2022-12-12T23:59:50.459Z,-0.42
